Imperatriz, Brazil
Current Conditions -  °F | °C
As of 11:00 AM on Friday 19 Dec 2014 (Local Time) from SBIZ Reporting Station
Overcast Overcast  
Wind Chill: 81°   Ceiling: 1500
Heat Index: 86°   Visibility: 6mi
Dew Point: 75°   Wind: 7mph
Humidity: 84%   Direction: 160°SSE
Pressure: 29.91"   Gusts: NA
Location:  5.52°S, 47.49°W
Report Text: SBIZ 191400Z 16006KT 9999 BKN015 OVC080 27/24 Q1013
Loading
Personal Weather Stations






























Interactive Weather Map New forecast layout! Learn more

10-Day Weather Forecast

Advertisements
Track Severe Weather on mobile